Stanley Mission, Canada
Current Conditions -  °F | °C
As of 12:00 PM on Monday 26 Jan 2015 (Local Time) from CYVC Reporting Station
Broken Clouds Broken Clouds  
Wind Chill: 30°   Ceiling: 10000
Heat Index: 34°   Visibility: 15mi
Dew Point: 30°   Wind: 5mph
Humidity: 87%   Direction: 200°SSW
Pressure: 29.76"   Gusts: NA
Location:  55.42°N, 104.56°W
Report Text: CYVC 261800Z 20004KT 15SM SCT020 BKN100 01/M01 A2976 RMK SC3AC3 SLP099
Loading
Personal Weather Stations






























Interactive Weather Map New forecast layout! Learn more

10-Day Weather Forecast

Advertisements
Track Severe Weather on mobile